createdAt,value
2022-10-15T00:00:54.914Z,100396.47
2022-10-15T00:01:55.196Z,100393.61
2022-10-15T00:02:55.488Z,100394.11
2022-10-15T00:03:56.086Z,100397.09
2022-10-15T00:04:56.371Z,100396.16
2022-10-15T00:05:56.780Z,100395.83
2022-10-15T00:06:57.091Z,100398.99
2022-10-15T00:07:57.718Z,100398.5
2022-10-15T00:08:58.041Z,100396.74
2022-10-15T00:09:58.194Z,100394.33
2022-10-15T00:12:01.438Z,100394.98
2022-10-15T00:14:02.264Z,100399.56
2022-10-15T00:15:02.781Z,100390.94
2022-10-15T00:16:04.018Z,100392.41
2022-10-15T00:17:03.306Z,100391
2022-10-15T00:18:04.026Z,100388.91
2022-10-15T00:19:04.352Z,100391.23
2022-10-15T00:20:06.809Z,100385.38
2022-10-15T00:22:09.602Z,100385.84
2022-10-15T00:23:09.701Z,100384.52
2022-10-15T00:24:10.207Z,100388.12
2022-10-15T00:25:10.842Z,100388.27
2022-10-15T00:27:13.104Z,100389.51
2022-10-15T00:28:13.626Z,100384.95
2022-10-15T00:29:14.136Z,100386.78
2022-10-15T00:30:14.547Z,100384.88
2022-10-15T00:31:17.225Z,100388.85
2022-10-15T00:32:15.292Z,100387.94
2022-10-15T00:33:15.795Z,100388.1
2022-10-15T00:34:16.018Z,100388.48
2022-10-15T00:35:16.734Z,100385.67
2022-10-15T00:36:20.345Z,100386.98
2022-10-15T00:37:17.972Z,100387.97
2022-10-15T00:38:18.302Z,100385.02
2022-10-15T00:39:18.675Z,100382.7
2022-10-15T00:40:19.027Z,100382.42
2022-10-15T00:41:22.720Z,100388.14
2022-10-15T00:42:20.394Z,100383.99
2022-10-15T00:45:24.184Z,100382.58
2022-10-15T00:48:30.496Z,100381.88
2022-10-15T00:49:37.935Z,100384.42
2022-10-15T00:50:30.552Z,100382.16
2022-10-15T00:51:37.118Z,100379.15
2022-10-15T00:53:37.183Z,100380.2
2022-10-15T00:55:43.388Z,100382.35
2022-10-15T00:56:43.465Z,100380.51
2022-10-15T00:57:42.682Z,100380.98
2022-10-15T00:58:42.489Z,100383.73
2022-10-15T01:00:45.152Z,100386.42
2022-10-15T01:01:45.585Z,100385.65
2022-10-15T01:02:46.109Z,100383.08
2022-10-15T01:03:46.731Z,100383.89
2022-10-15T01:04:47.957Z,100383.41
2022-10-15T01:05:50.221Z,100384.58
2022-10-15T01:06:47.762Z,100380.84
2022-10-15T01:07:47.964Z,100382.62
2022-10-15T01:08:48.458Z,100382.46
2022-10-15T01:09:49.017Z,100381.8
2022-10-15T01:11:56.307Z,100383.16
2022-10-15T01:27:45.912Z,100381.5
2022-10-15T01:43:15.547Z,100379.5
2022-10-15T01:45:22.937Z,100372.28
2022-10-15T01:48:29.819Z,100371.33
2022-10-15T01:50:32.491Z,100374.5
2022-10-15T01:51:33.827Z,100371.22
2022-10-15T01:53:34.964Z,100371.84
2022-10-15T01:54:34.972Z,100369.4
2022-10-15T01:55:36.916Z,100369.41
2022-10-15T01:56:36.366Z,100368.34
2022-10-15T01:57:35.464Z,100368.84
2022-10-15T01:59:38.285Z,100363.99
2022-10-15T02:00:39.875Z,100364.5
2022-10-15T02:02:40.653Z,100363.64
2022-10-15T02:04:41.027Z,100362.31
2022-10-15T02:05:47.228Z,100365.95
2022-10-15T02:06:48.637Z,100362.61
2022-10-15T02:15:23.545Z,100359.23
2022-10-15T02:24:41.620Z,100362.45
2022-10-15T02:25:40.483Z,100364.62
2022-10-15T02:26:41.096Z,100365.38
2022-10-15T02:27:42.455Z,100362.41
2022-10-15T02:28:43.542Z,100361.81
2022-10-15T02:29:45.439Z,100362.52
2022-10-15T02:30:45.821Z,100362.02
2022-10-15T02:31:46.127Z,100361.12
2022-10-15T02:32:47.607Z,100362.03
2022-10-15T02:33:46.155Z,100357.7
2022-10-15T02:34:47.106Z,100360.84
2022-10-15T02:35:47.825Z,100360.98
2022-10-15T02:36:47.017Z,100358.84
2022-10-15T02:37:50.316Z,100364.36
2022-10-15T02:38:49.089Z,100357.58
2022-10-15T02:39:48.370Z,100359.86
2022-10-15T02:40:49.196Z,100360.97
2022-10-15T02:41:49.415Z,100361.03
2022-10-15T02:42:51.736Z,100360.96
2022-10-15T02:43:49.620Z,100353.77
2022-10-15T02:44:49.938Z,100356.42
2022-10-15T02:45:50.460Z,100357.49
2022-10-15T02:46:50.822Z,100358.56
2022-10-15T02:47:51.248Z,100359.34
2022-10-15T02:48:51.607Z,100361.12
2022-10-15T02:49:51.846Z,100357.28
2022-10-15T02:50:52.338Z,100350.17
2022-10-15T02:51:52.766Z,100356.31
2022-10-15T02:52:53.377Z,100354.06
2022-10-15T02:53:53.479Z,100351.27
2022-10-15T02:54:54.003Z,100352.34
2022-10-15T02:55:54.218Z,100351.73
2022-10-15T02:56:54.728Z,100352.34
2022-10-15T02:57:55.146Z,100348.78
2022-10-15T02:58:55.661Z,100344.56
2022-10-15T02:59:55.772Z,100346.55
2022-10-15T03:00:56.270Z,100347.54
2022-10-15T03:01:56.506Z,100347.12
2022-10-15T03:02:57.094Z,100342.9
2022-10-15T03:03:57.331Z,100345.64
2022-10-15T03:04:57.852Z,100344.06
2022-10-15T03:05:58.278Z,100346.33
2022-10-15T03:06:58.481Z,100342.86
2022-10-15T03:08:00.346Z,100347.91
2022-10-15T03:08:59.326Z,100348.62
2022-10-15T03:09:59.735Z,100342.94
2022-10-15T03:11:01.278Z,100340.43
2022-10-15T03:12:00.563Z,100342.59
2022-10-15T03:13:04.936Z,100345.22
2022-10-15T03:14:02.299Z,100342.91
2022-10-15T03:15:02.847Z,100342.31
2022-10-15T03:16:07.271Z,100344.24
2022-10-15T03:17:04.544Z,100339.17
2022-10-15T03:18:05.838Z,100340.05
2022-10-15T03:19:05.425Z,100342.23
2022-10-15T03:20:06.757Z,100338.47
2022-10-15T03:21:06.253Z,100340.61
2022-10-15T03:22:06.584Z,100337.62
2022-10-15T03:23:07.097Z,100337.3
2022-10-15T03:24:07.717Z,100334.67
2022-10-15T03:25:08.326Z,100335.44
2022-10-15T03:26:08.437Z,100336.34
2022-10-15T03:27:08.826Z,100334.7
2022-10-15T03:28:08.967Z,100333.06
2022-10-15T03:29:09.382Z,100332.23
2022-10-15T03:30:10.824Z,100332.42
2022-10-15T03:31:10.318Z,100330.21
2022-10-15T03:32:10.472Z,100330.44
2022-10-15T03:33:11.203Z,100327.94
2022-10-15T03:34:11.263Z,100330.42
2022-10-15T03:35:11.887Z,100331.38
2022-10-15T03:36:11.940Z,100329.48
2022-10-15T03:37:12.517Z,100333.53
2022-10-15T03:38:12.925Z,100334.12
2022-10-15T03:39:13.768Z,100331.69
2022-10-15T03:40:14.717Z,100333.44
2022-10-15T03:41:14.077Z,100330.64
2022-10-15T03:42:14.803Z,100332.99
2022-10-15T03:43:14.901Z,100333.48
2022-10-15T03:44:15.731Z,100333.82
2022-10-15T03:45:15.986Z,100331.83
2022-10-15T03:46:16.053Z,100332
2022-10-15T03:47:16.533Z,100331.31
2022-10-15T03:48:16.671Z,100324.84
2022-10-15T03:49:17.196Z,100329.08
2022-10-15T03:50:17.711Z,100326.22
2022-10-15T03:51:22.019Z,100329.97
2022-10-15T03:52:22.403Z,100324.84
2022-10-15T03:53:22.350Z,100326.14
2022-10-15T03:54:22.770Z,100326.66
2022-10-15T03:55:23.273Z,100325.88
2022-10-15T03:56:23.586Z,100327.58
2022-10-15T03:57:24.007Z,100322.89
2022-10-15T03:58:24.420Z,100323.9
2022-10-15T03:59:24.831Z,100328.59
2022-10-15T04:00:25.262Z,100327.55
2022-10-15T04:01:25.632Z,100331.3
2022-10-15T04:02:26.611Z,100328.56
2022-10-15T04:03:26.292Z,100326.67
2022-10-15T04:04:26.618Z,100324.41
2022-10-15T04:05:27.138Z,100328.7
2022-10-15T04:06:27.400Z,100328.04
2022-10-15T04:07:27.954Z,100329.98
2022-10-15T04:08:28.377Z,100323.03
2022-10-15T04:09:28.495Z,100324.89
2022-10-15T04:10:29.307Z,100328.47
2022-10-15T04:11:29.515Z,100328.78
2022-10-15T04:12:29.636Z,100327.83
2022-10-15T04:13:30.256Z,100330.71
2022-10-15T04:14:30.776Z,100331.3
2022-10-15T04:15:31.138Z,100335.27
2022-10-15T04:16:31.146Z,100334.53
2022-10-15T04:17:31.710Z,100333.97
2022-10-15T04:18:32.641Z,100335.77
2022-10-15T04:19:32.616Z,100338.47
2022-10-15T04:20:32.956Z,100338.17
2022-10-15T04:21:33.276Z,100341.3
2022-10-15T04:22:33.594Z,100343.77
2022-10-15T04:23:34.216Z,100339.98
2022-10-15T04:24:34.317Z,100342.23
2022-10-15T04:25:36.194Z,100342.25
2022-10-15T04:26:35.016Z,100343.34
2022-10-15T04:27:35.580Z,100340.85
2022-10-15T04:28:36.094Z,100343.92
2022-10-15T04:29:36.196Z,100339.88
2022-10-15T04:30:36.615Z,100345.33
2022-10-15T04:31:37.028Z,100343.57
2022-10-15T04:32:37.555Z,100348.94
2022-10-15T04:33:37.767Z,100345.23
2022-10-15T04:34:38.086Z,100346.47
2022-10-15T04:35:38.455Z,100348.97
2022-10-15T04:36:39.007Z,100346.07
2022-10-15T04:37:39.386Z,100345.16
2022-10-15T04:38:41.040Z,100342.2
2022-10-15T04:39:40.477Z,100347.15
2022-10-15T04:40:40.361Z,100348.41
2022-10-15T04:41:40.629Z,100348.8
2022-10-15T04:42:41.408Z,100344.86
2022-10-15T04:43:41.563Z,100347.19
2022-10-15T04:44:42.036Z,100346.53
2022-10-15T04:45:42.236Z,100343.21
2022-10-15T04:46:42.616Z,100347.53
2022-10-15T04:47:43.695Z,100349
2022-10-15T04:48:43.624Z,100345.95
2022-10-15T04:49:44.018Z,100345.3
2022-10-15T04:50:44.230Z,100343.64
2022-10-15T04:51:44.648Z,100342.23
2022-10-15T04:52:45.057Z,100343.38
2022-10-15T04:53:45.735Z,100343.32
2022-10-15T04:54:46.082Z,100344.62
2022-10-15T04:55:46.812Z,100341.17
2022-10-15T04:56:46.362Z,100343.63
2022-10-15T04:57:47.031Z,100342.91
2022-10-15T04:58:48.671Z,100341.8
2022-10-15T04:59:47.655Z,100342.72
2022-10-15T05:00:47.945Z,100342.81
2022-10-15T05:01:48.528Z,100343.87
2022-10-15T05:02:48.702Z,100343.14
2022-10-15T05:03:49.581Z,100341.83
2022-10-15T05:04:49.694Z,100339.33
2022-10-15T05:05:49.801Z,100337.85
2022-10-15T05:06:50.361Z,100337.92
2022-10-15T05:07:50.573Z,100337.94
2022-10-15T05:08:51.607Z,100342.62
2022-10-15T05:09:51.401Z,100340.25
2022-10-15T05:10:51.621Z,100340.72
2022-10-15T05:11:52.346Z,100339.91
2022-10-15T05:12:55.774Z,100337.67
2022-10-15T05:13:57.948Z,100335.02
2022-10-15T05:14:55.224Z,100337.72
2022-10-15T05:15:55.747Z,100337.8
2022-10-15T05:16:56.063Z,100338.62
2022-10-15T05:17:56.486Z,100340.91
2022-10-15T05:18:59.246Z,100335.95
2022-10-15T05:19:57.166Z,100335.1
2022-10-15T05:21:01.716Z,100333.94
2022-10-15T05:21:59.025Z,100337.38
2022-10-15T05:22:59.345Z,100333.52
2022-10-15T05:24:00.123Z,100336.31
2022-10-15T05:25:00.218Z,100333.62
2022-10-15T05:26:06.337Z,100337.42
2022-10-15T05:27:04.324Z,100337.77
2022-10-15T05:28:04.586Z,100336.35
2022-10-15T05:29:04.776Z,100331.21
2022-10-15T05:30:05.582Z,100335.73
2022-10-15T05:31:14.746Z,100335.41
2022-10-15T05:32:10.284Z,100335.55
2022-10-15T05:33:10.607Z,100334.09
2022-10-15T05:34:13.901Z,100335.41
2022-10-15T05:35:11.337Z,100338.3
2022-10-15T05:36:17.182Z,100338.38
2022-10-15T05:37:14.433Z,100336.53
2022-10-15T05:38:15.047Z,100335.75
2022-10-15T05:39:15.156Z,100334.58
2022-10-15T05:40:18.332Z,100341.06
2022-10-15T05:41:19.264Z,100340.14
2022-10-15T05:42:19.070Z,100340.14
2022-10-15T05:43:19.280Z,100336.58
2022-10-15T05:44:19.651Z,100340.8
2022-10-15T05:45:20.104Z,100337.36
2022-10-15T05:46:21.231Z,100338.52
2022-10-15T05:47:21.588Z,100333.58
2022-10-15T05:48:21.348Z,100333.83
2022-10-15T05:49:21.462Z,100338.45
2022-10-15T05:50:23.004Z,100340.39
2022-10-15T05:51:23.106Z,100339.23
2022-10-15T05:52:23.110Z,100340.75
2022-10-15T05:53:23.030Z,100341.34
2022-10-15T05:54:23.548Z,100341.36
2022-10-15T05:55:23.764Z,100343.34
2022-10-15T05:56:25.496Z,100340.06
2022-10-15T05:57:24.481Z,100342.04
2022-10-15T05:58:32.034Z,100339.58
2022-10-15T05:59:27.226Z,100338.43
2022-10-15T06:00:27.779Z,100342.89
2022-10-15T06:01:28.297Z,100343.9
2022-10-15T06:02:29.062Z,100342.47
2022-10-15T06:03:29.441Z,100349.84
2022-10-15T06:04:31.791Z,100346.19
2022-10-15T06:05:32.625Z,100342.23
2022-10-15T06:06:32.736Z,100347.17
2022-10-15T06:07:32.942Z,100344.69
2022-10-15T06:08:33.384Z,100345.5
2022-10-15T06:09:33.748Z,100348.2
2022-10-15T06:10:36.542Z,100346.62
2022-10-15T06:11:36.048Z,100347.98
2022-10-15T06:12:34.926Z,100343.51
2022-10-15T06:13:35.200Z,100340.94
2022-10-15T06:14:35.566Z,100344.45
2022-10-15T06:15:39.966Z,100346.03
2022-10-15T06:16:37.486Z,100347.92
2022-10-15T06:17:37.719Z,100348.39
2022-10-15T06:18:38.884Z,100349.3
2022-10-15T06:19:38.565Z,100348.8
2022-10-15T06:20:38.769Z,100348.4
2022-10-15T06:21:39.178Z,100352.38
2022-10-15T06:22:39.931Z,100349.45
2022-10-15T06:23:40.129Z,100353.59
2022-10-15T06:24:40.339Z,100352.08
2022-10-15T06:25:40.723Z,100346.66
2022-10-15T06:26:41.158Z,100356.62
2022-10-15T06:27:41.477Z,100353.26
2022-10-15T06:28:42.046Z,100352.85
2022-10-15T06:29:42.266Z,100353.33
2022-10-15T06:30:43.288Z,100351.48
2022-10-15T06:31:42.932Z,100353.91
2022-10-15T06:33:46.124Z,100352.84
2022-10-15T06:34:46.325Z,100352.73
2022-10-15T06:35:46.713Z,100355.23
2022-10-15T06:36:47.261Z,100355.2
2022-10-15T06:37:48.302Z,100354.84
2022-10-15T06:38:48.200Z,100358.22
2022-10-15T06:39:48.308Z,100357.25
2022-10-15T06:40:48.733Z,100361.82
2022-10-15T06:41:49.113Z,100358.58
2022-10-15T06:42:49.460Z,100357.97
2022-10-15T06:43:50.485Z,100359.01
2022-10-15T06:44:50.294Z,100357.69
2022-10-15T06:45:50.917Z,100359.48
2022-10-15T06:46:50.914Z,100357.56
2022-10-15T06:47:51.339Z,100354.36
2022-10-15T06:48:51.958Z,100357
2022-10-15T06:49:52.380Z,100352.91
2022-10-15T06:50:52.434Z,100351.15
2022-10-15T06:51:52.993Z,100348.94
2022-10-15T06:52:53.350Z,100353.02
2022-10-15T06:53:53.784Z,100351.85
2022-10-15T06:54:54.142Z,100349.68
2022-10-15T06:56:03.060Z,100351.33
2022-10-15T06:56:56.310Z,100353.55
2022-10-15T06:57:56.947Z,100353.62
2022-10-15T06:58:56.226Z,100351.47
2022-10-15T06:59:56.709Z,100350.84
2022-10-15T07:01:01.403Z,100352.61
2022-10-15T07:01:58.644Z,100356.14
2022-10-15T07:03:04.022Z,100353.28
2022-10-15T07:04:02.295Z,100352.38
2022-10-15T07:05:02.613Z,100352.69
2022-10-15T07:06:04.586Z,100356.98
2022-10-15T07:07:03.546Z,100353.55
2022-10-15T07:08:04.161Z,100356.12
2022-10-15T07:09:04.783Z,100352.67
2022-10-15T07:10:05.609Z,100355.64
2022-10-15T07:11:06.740Z,100361.77
2022-10-15T07:12:05.924Z,100360.05
2022-10-15T07:13:05.625Z,100360.64
2022-10-15T07:14:06.474Z,100362.52
2022-10-15T07:15:07.381Z,100363.91
2022-10-15T07:16:11.899Z,100364.12
2022-10-15T07:17:09.245Z,100363.32
2022-10-15T07:18:09.550Z,100362.03
2022-10-15T07:19:10.179Z,100356.28
2022-10-15T07:20:11.115Z,100349.51
2022-10-15T07:22:11.627Z,100353.14
2022-10-15T07:23:11.734Z,100347.83
2022-10-15T07:24:12.258Z,100350.34
2022-10-15T07:25:12.466Z,100352.12
2022-10-15T07:26:13.093Z,100348.07
2022-10-15T07:27:20.087Z,100348.36
2022-10-15T07:28:17.514Z,100347.29
2022-10-15T07:29:18.127Z,100349.33
2022-10-15T07:30:18.546Z,100348.77
2022-10-15T07:31:18.750Z,100351.85
2022-10-15T07:32:19.243Z,100351.66
2022-10-15T07:33:19.582Z,100346.88
2022-10-15T07:34:20.103Z,100351.27
2022-10-15T07:35:20.278Z,100352.69
2022-10-15T07:36:20.900Z,100349.22
2022-10-15T07:37:21.206Z,100351.23
2022-10-15T07:38:21.466Z,100355.23
2022-10-15T07:39:22.081Z,100357.2
2022-10-15T07:40:22.467Z,100351.73
2022-10-15T07:41:22.913Z,100356.22
2022-10-15T07:42:23.234Z,100359.62
2022-10-15T07:43:23.749Z,100353.94
2022-10-15T07:44:23.858Z,100366.6
2022-10-15T07:45:25.191Z,100363
2022-10-15T07:46:24.901Z,100354.92
2022-10-15T07:47:25.484Z,100360.04
2022-10-15T07:48:26.131Z,100359.84
2022-10-15T07:49:26.139Z,100357.15
2022-10-15T07:50:29.263Z,100356.95
2022-10-15T07:51:29.744Z,100358.84
2022-10-15T07:52:31.188Z,100359.27
2022-10-15T07:53:31.202Z,100364.02
2022-10-15T07:54:33.239Z,100358.38
2022-10-15T07:55:31.502Z,100358.59
2022-10-15T07:56:31.712Z,100359.23
2022-10-15T07:57:32.136Z,100362.25
2022-10-15T07:58:32.764Z,100363.94
2022-10-15T07:59:33.788Z,100366.39
2022-10-15T08:01:33.899Z,100359.55
2022-10-15T08:02:34.109Z,100364.86
2022-10-15T08:03:35.034Z,100364.7
2022-10-15T08:04:34.942Z,100365.5
2022-10-15T08:05:35.571Z,100365.47
2022-10-15T08:06:35.774Z,100370.84
2022-10-15T08:07:36.293Z,100368.27
2022-10-15T08:08:37.231Z,100369.55
2022-10-15T08:09:37.199Z,100368.29
2022-10-15T08:10:37.465Z,100367.43
2022-10-15T08:11:38.070Z,100363.09
2022-10-15T08:12:38.287Z,100363.13
2022-10-15T08:13:39.411Z,100368.75
2022-10-15T08:14:38.959Z,100362.06
2022-10-15T08:15:40.641Z,100365.17
2022-10-15T08:16:39.946Z,100360.97
2022-10-15T08:17:40.373Z,100362.39
2022-10-15T08:18:40.974Z,100362.42
2022-10-15T08:19:41.206Z,100362.95
2022-10-15T08:20:41.500Z,100364.53
2022-10-15T08:21:43.937Z,100357.77
2022-10-15T08:22:44.181Z,100357.84
2022-10-15T08:23:44.797Z,100355.66
2022-10-15T08:24:45.009Z,100361.41
2022-10-15T08:25:45.285Z,100353.69
2022-10-15T08:26:45.837Z,100356.88
2022-10-15T08:27:46.253Z,100357.27
2022-10-15T08:28:46.804Z,100363.14
2022-10-15T08:29:47.090Z,100359.83
2022-10-15T08:30:47.411Z,100361.68
2022-10-15T08:31:47.713Z,100364.23
2022-10-15T08:32:48.341Z,100360.05
2022-10-15T08:33:48.729Z,100357.12
2022-10-15T08:34:49.164Z,100351.75
2022-10-15T08:35:49.589Z,100359.12
2022-10-15T08:36:49.796Z,100359.17
2022-10-15T08:37:54.721Z,100360.45
2022-10-15T08:38:52.226Z,100366.23
2022-10-15T08:39:52.388Z,100364.23
2022-10-15T08:40:55.970Z,100367.05
2022-10-15T08:41:59.868Z,100365.5
2022-10-15T08:42:57.922Z,100359.88
2022-10-15T08:43:58.238Z,100361.14
2022-10-15T08:45:06.848Z,100358.02
2022-10-15T08:46:03.343Z,100360.15
2022-10-15T08:49:06.564Z,100361.27
2022-10-15T08:54:18.587Z,100362.31
2022-10-15T08:55:20.172Z,100357.38
2022-10-15T09:11:13.775Z,100348.64
2022-10-15T09:15:15.347Z,100350.1
2022-10-15T09:17:23.995Z,100347.84
2022-10-15T09:19:26.325Z,100351.51
2022-10-15T09:21:30.433Z,100356.58
2022-10-15T09:22:33.727Z,100360.55
2022-10-15T09:23:33.934Z,100364.52
2022-10-15T09:24:32.298Z,100366.9
2022-10-15T09:27:39.732Z,100362.58
2022-10-15T09:28:47.737Z,100363.75
2022-10-15T09:34:02.671Z,100352.89
2022-10-15T09:35:01.356Z,100351.6
2022-10-15T09:43:59.670Z,100352.88
2022-10-15T09:45:07.880Z,100353.33
2022-10-15T09:46:06.752Z,100353.76
2022-10-15T09:49:16.703Z,100351.98
2022-10-15T09:57:23.819Z,100355.44
2022-10-15T09:59:24.614Z,100354.86
2022-10-15T10:00:23.219Z,100357.98
2022-10-15T10:01:29.223Z,100358.1
2022-10-15T10:02:28.060Z,100359.02
2022-10-15T10:03:32.336Z,100364.48
2022-10-15T10:04:32.251Z,100359.62
2022-10-15T10:05:33.067Z,100358.66
2022-10-15T10:06:30.720Z,100354.1
2022-10-15T10:07:36.843Z,100355.02
2022-10-15T10:10:40.773Z,100353.83
2022-10-15T10:12:43.978Z,100348.25
2022-10-15T10:15:46.246Z,100354.25
2022-10-15T10:17:57.111Z,100353.22
2022-10-15T10:26:12.282Z,100357.98
2022-10-15T10:28:25.078Z,100354.88
2022-10-15T10:29:34.825Z,100359.09
2022-10-15T10:30:17.941Z,100355.67
2022-10-15T10:31:18.916Z,100361.39
2022-10-15T10:36:37.317Z,100366.45
2022-10-15T10:38:36.680Z,100370.66
2022-10-15T10:39:35.107Z,100362.55
2022-10-15T10:40:36.278Z,100368.47
2022-10-15T10:42:37.438Z,100366.75
2022-10-15T10:44:42.242Z,100369.16
2022-10-15T10:46:43.870Z,100366.2
2022-10-15T10:47:44.545Z,100368.27
2022-10-15T10:48:54.382Z,100368.22
2022-10-15T10:49:55.190Z,100371.09
2022-10-15T10:50:47.759Z,100370.89
2022-10-15T10:51:50.865Z,100365.49
2022-10-15T10:52:48.811Z,100364.62
2022-10-15T10:54:01.723Z,100367.06
2022-10-15T10:55:56.565Z,100365.75
2022-10-15T10:56:54.816Z,100366.42
2022-10-15T10:57:59.227Z,100360.05
2022-10-15T10:59:57.515Z,100366.77
2022-10-15T11:00:58.491Z,100366.72
2022-10-15T11:01:58.236Z,100368.88
2022-10-15T11:02:58.768Z,100366.45
2022-10-15T11:03:58.828Z,100362.8
2022-10-15T11:04:59.390Z,100368.04
2022-10-15T11:57:18.986Z,100362.97
2022-10-15T12:03:31.515Z,100354.42
2022-10-15T12:05:39.720Z,100359.4
2022-10-15T12:06:36.737Z,100357.55
2022-10-15T12:07:40.243Z,100355.25
2022-10-15T12:08:40.149Z,100357.84
2022-10-15T12:09:44.978Z,100351.72
2022-10-15T12:22:12.390Z,100353.11
2022-10-15T12:27:32.602Z,100349.78
2022-10-15T12:28:31.840Z,100347.52
2022-10-15T12:29:30.665Z,100347.7
2022-10-15T12:30:34.966Z,100347.88
2022-10-15T12:33:47.789Z,100350.03
2022-10-15T12:34:41.963Z,100346.7
2022-10-15T12:35:40.742Z,100346.9
2022-10-15T12:36:42.284Z,100346.95
2022-10-15T12:37:43.942Z,100349.38
2022-10-15T12:38:54.990Z,100344.88
2022-10-15T12:39:59.517Z,100348.62
2022-10-15T12:40:55.030Z,100346.39
2022-10-15T12:41:49.386Z,100349.16
2022-10-15T12:44:52.060Z,100347.94
2022-10-15T12:46:56.800Z,100348.28
2022-10-15T12:49:00.596Z,100350.44
2022-10-15T13:03:36.428Z,100344.02
2022-10-15T13:05:33.888Z,100344.03
2022-10-15T13:06:34.979Z,100343.16
2022-10-15T13:07:36.248Z,100337.24
2022-10-15T13:08:33.690Z,100342.02
2022-10-15T13:09:34.622Z,100342.69
2022-10-15T13:12:36.377Z,100342.99
2022-10-15T13:13:36.896Z,100343.45
2022-10-15T13:15:40.700Z,100342.99
2022-10-15T13:16:48.186Z,100339.25
2022-10-15T13:17:46.351Z,100340.35
2022-10-15T13:18:50.776Z,100338.67
2022-10-15T13:20:52.567Z,100343.02
2022-10-15T13:21:53.746Z,100343.93
2022-10-15T13:22:58.355Z,100343.77
2022-10-15T13:23:54.592Z,100344.27
2022-10-15T13:24:55.209Z,100343.89
2022-10-15T13:26:57.247Z,100341.55
2022-10-15T13:27:55.834Z,100344.66
2022-10-15T13:28:59.404Z,100342.86
2022-10-15T13:30:58.988Z,100346.67
2022-10-15T13:31:58.742Z,100348.34
2022-10-15T13:32:58.842Z,100345.37
2022-10-15T13:35:11.346Z,100346.91
2022-10-15T13:36:16.265Z,100344
2022-10-15T13:37:20.175Z,100342.02
2022-10-15T13:38:26.017Z,100344.53
2022-10-15T13:42:26.042Z,100346.06
2022-10-15T13:43:26.046Z,100344.59
2022-10-15T13:44:24.926Z,100344.77
2022-10-15T13:45:25.135Z,100345.03
2022-10-15T13:46:28.315Z,100348.2
2022-10-15T13:48:32.504Z,100345.2
2022-10-15T13:49:31.023Z,100345.27
2022-10-15T13:50:35.002Z,100346.44
2022-10-15T13:51:40.712Z,100346.97
2022-10-15T13:52:33.166Z,100346.03
2022-10-15T13:53:40.754Z,100343.3
2022-10-15T13:54:39.547Z,100345.83
2022-10-15T13:55:43.434Z,100339.88
2022-10-15T13:56:50.474Z,100338.24
2022-10-15T13:58:47.743Z,100335.17
2022-10-15T13:59:46.525Z,100337.04
2022-10-15T14:01:49.408Z,100332.22
2022-10-15T14:04:51.066Z,100339.28
2022-10-15T14:05:53.221Z,100333.93
2022-10-15T14:07:55.288Z,100331.99
2022-10-15T14:09:59.807Z,100333.62
2022-10-15T14:11:00.532Z,100329.92
2022-10-15T14:12:03.461Z,100332.02
2022-10-15T14:13:03.310Z,100332.96
2022-10-15T14:14:01.675Z,100331.39
2022-10-15T14:17:11.532Z,100327.64
2022-10-15T14:18:09.793Z,100329.98
2022-10-15T14:19:14.921Z,100327.64
2022-10-15T14:20:32.662Z,100332.16
2022-10-15T14:22:21.455Z,100331.86
2022-10-15T14:24:23.358Z,100332.75
2022-10-15T14:25:24.399Z,100330.92
2022-10-15T14:26:24.900Z,100331.59
2022-10-15T14:28:28.035Z,100330.85
2022-10-15T14:30:34.711Z,100333.86
2022-10-15T14:33:44.266Z,100335.56
2022-10-15T14:34:41.861Z,100334.72
2022-10-15T14:35:42.372Z,100335.69
2022-10-15T14:36:43.400Z,100334.12
2022-10-15T14:37:43.208Z,100336.29
2022-10-15T14:38:43.609Z,100335.05
2022-10-15T14:39:48.441Z,100333.41
2022-10-15T14:46:08.667Z,100343.02
2022-10-15T14:47:06.400Z,100340.39
2022-10-15T14:48:15.131Z,100340.05
2022-10-15T14:50:11.643Z,100337.31
2022-10-15T14:51:23.134Z,100336.02
2022-10-15T14:54:26.711Z,100340.66
2022-10-15T14:55:31.147Z,100339.36
2022-10-15T14:56:30.234Z,100341.77
2022-10-15T14:57:36.903Z,100343.23
2022-10-15T14:58:30.329Z,100345.77
2022-10-15T14:59:33.404Z,100342.77
2022-10-15T15:01:33.467Z,100343.44
2022-10-15T15:02:33.841Z,100343.8
2022-10-15T15:03:42.348Z,100343.59
2022-10-15T15:04:40.467Z,100349.11
2022-10-15T15:05:49.647Z,100342.19
2022-10-15T15:06:42.683Z,100343.36
2022-10-15T15:07:43.291Z,100344.75
2022-10-15T15:08:44.081Z,100344.17
2022-10-15T15:09:47.302Z,100342.56
2022-10-15T15:10:45.451Z,100339.78
2022-10-15T15:11:45.271Z,100338.08
2022-10-15T15:12:56.637Z,100340.78
2022-10-15T15:13:49.598Z,100344.38
2022-10-15T15:14:49.895Z,100343.41
2022-10-15T15:15:50.104Z,100342.7
2022-10-15T15:16:50.543Z,100340.72
2022-10-15T15:17:51.250Z,100342.83
2022-10-15T15:18:51.261Z,100343.98
2022-10-15T15:19:53.831Z,100342.02
2022-10-15T15:20:52.801Z,100338.63
2022-10-15T15:21:52.819Z,100340.41
2022-10-15T15:22:54.887Z,100340.57
2022-10-15T15:23:53.630Z,100343
2022-10-15T15:24:53.854Z,100343.06
2022-10-15T15:25:54.890Z,100342.92
2022-10-15T15:26:54.795Z,100342.86
2022-10-15T15:27:55.213Z,100343.83
2022-10-15T15:28:55.785Z,100344.59
2022-10-15T15:29:56.553Z,100343.27
2022-10-15T15:30:59.019Z,100345.41
2022-10-15T15:31:56.978Z,100337.75
2022-10-15T15:32:57.908Z,100340.11
2022-10-15T15:33:57.769Z,100343.81
2022-10-15T15:34:58.905Z,100343.18
2022-10-15T15:36:12.736Z,100338.34
2022-10-15T15:37:01.322Z,100342.89
2022-10-15T15:38:00.610Z,100338.13
2022-10-15T15:39:01.083Z,100339.47
2022-10-15T15:40:01.535Z,100334.02
2022-10-15T15:41:13.727Z,100331.56
2022-10-15T15:42:06.263Z,100332.24
2022-10-15T15:43:06.671Z,100335.75
2022-10-15T15:44:06.990Z,100329.7
2022-10-15T15:46:07.934Z,100332.3
2022-10-15T15:47:08.850Z,100328.8
2022-10-15T15:48:09.164Z,100330.55
2022-10-15T15:49:09.378Z,100328.75
2022-10-15T15:50:09.796Z,100330.88
2022-10-15T15:52:13.149Z,100335.69
2022-10-15T15:53:12.894Z,100335.54
2022-10-15T15:54:11.982Z,100333.91
2022-10-15T15:55:13.108Z,100333.83
2022-10-15T15:56:12.912Z,100336.52
2022-10-15T15:57:13.950Z,100332.09
2022-10-15T15:58:13.530Z,100331.97
2022-10-15T15:59:14.152Z,100335.83
2022-10-15T16:00:15.298Z,100333.27
2022-10-15T16:01:15.015Z,100331.55
2022-10-15T16:02:15.516Z,100331.34
2022-10-15T16:03:15.729Z,100337.19
2022-10-15T16:04:16.130Z,100333.14
2022-10-15T16:05:16.820Z,100336.16
2022-10-15T16:06:17.280Z,100332.24
2022-10-15T16:07:19.526Z,100329.41
2022-10-15T16:08:18.003Z,100328.75
2022-10-15T16:09:19.341Z,100327.81
2022-10-15T16:10:19.032Z,100324.59
2022-10-15T16:11:19.150Z,100329.33
2022-10-15T16:12:19.875Z,100324.12